createdAt,value
2023-02-03T00:05:28.768Z,7.17
2023-02-03T00:07:57.483Z,6.63
2023-02-03T00:10:25.931Z,7.83
2023-02-03T00:12:54.767Z,7.57
2023-02-03T00:15:23.664Z,10.77
2023-02-03T00:17:51.622Z,7.70
2023-02-03T00:20:19.833Z,7.23
2023-02-03T00:22:49.271Z,8.87
2023-02-03T00:25:17.319Z,8.90
2023-02-03T00:27:45.394Z,7.23
2023-02-03T00:30:14.393Z,6.87
2023-02-03T00:32:42.658Z,6.63
2023-02-03T00:35:10.622Z,6.47
2023-02-03T00:37:38.615Z,5.43
2023-02-03T00:40:08.791Z,5.43
2023-02-03T00:42:37.072Z,4.77
2023-02-03T00:45:05.665Z,3.97
2023-02-03T00:47:33.639Z,4.90
2023-02-03T00:50:01.599Z,5.70
2023-02-03T00:52:29.586Z,3.53
2023-02-03T00:54:57.559Z,3.50
2023-02-03T00:57:27.032Z,3.60
2023-02-03T00:59:55.901Z,3.23
2023-02-03T01:02:23.962Z,3.53
2023-02-03T01:04:52.013Z,2.87
2023-02-03T01:07:20.302Z,3.23
2023-02-03T01:09:48.277Z,2.53
2023-02-03T01:12:16.315Z,4.20
2023-02-03T01:14:45.728Z,6.43
2023-02-03T01:17:15.070Z,5.60
2023-02-03T01:19:43.042Z,8.10
2023-02-03T01:22:10.988Z,8.13
2023-02-03T01:24:39.034Z,10.67
2023-02-03T01:27:07.231Z,9.33
2023-02-03T01:29:36.087Z,10.20
2023-02-03T01:32:05.626Z,9.33
2023-02-03T01:34:33.639Z,7.73
2023-02-03T01:37:03.293Z,6.07
2023-02-03T01:39:31.707Z,6.63
2023-02-03T01:41:59.676Z,5.93
2023-02-03T01:44:40.132Z,4.70
2023-02-03T01:47:18.897Z,4.40
2023-02-03T01:49:53.250Z,4.37
2023-02-03T01:52:21.277Z,4.53
2023-02-03T01:54:52.998Z,4.80
2023-02-03T01:57:24.961Z,4.63
2023-02-03T01:59:57.112Z,4.57
2023-02-03T02:02:26.788Z,6.03
2023-02-03T02:05:01.197Z,5.73
2023-02-03T02:07:30.073Z,6.07
2023-02-03T02:09:59.405Z,6.87
2023-02-03T02:12:27.438Z,5.47
2023-02-03T02:14:55.726Z,6.60
2023-02-03T02:17:50.443Z,10.40
2023-02-03T02:21:00.375Z,9.33
2023-02-03T02:23:54.572Z,11.13
2023-02-03T02:26:56.302Z,11.80
2023-02-03T02:29:55.038Z,12.83
2023-02-03T02:32:36.429Z,11.33
2023-02-03T02:35:11.506Z,10.27
2023-02-03T02:37:49.321Z,11.30
2023-02-03T02:40:25.317Z,9.70
2023-02-03T02:43:05.830Z,9.17
2023-02-03T02:45:46.425Z,9.73
2023-02-03T02:48:24.130Z,9.60
2023-02-03T02:50:56.288Z,9.60
2023-02-03T02:53:29.811Z,8.37
2023-02-03T02:55:59.545Z,10.27
2023-02-03T02:58:29.159Z,8.90
2023-02-03T03:00:57.290Z,9.47
2023-02-03T03:03:27.030Z,9.87
2023-02-03T03:05:56.884Z,9.70
2023-02-03T03:08:31.685Z,10.60
2023-02-03T03:11:01.141Z,9.93
2023-02-03T03:13:33.531Z,10.03
2023-02-03T03:16:04.051Z,11.33
2023-02-03T03:18:38.581Z,10.73
2023-02-03T03:21:07.965Z,10.03
2023-02-03T03:23:39.583Z,12.97
2023-02-03T03:26:14.159Z,13.17
2023-02-03T03:28:48.998Z,10.77
2023-02-03T03:31:18.322Z,12.40
2023-02-03T03:33:49.477Z,12.03
2023-02-03T03:36:26.301Z,10.77
2023-02-03T03:39:01.036Z,10.30
2023-02-03T03:41:41.104Z,11.60
2023-02-03T03:44:13.572Z,14.27
2023-02-03T03:46:48.000Z,13.70
2023-02-03T03:49:19.166Z,10.47
2023-02-03T03:51:51.341Z,10.77
2023-02-03T03:54:23.226Z,11.70
2023-02-03T03:56:55.941Z,10.80
2023-02-03T03:59:25.349Z,10.30
2023-02-03T04:01:54.073Z,12.23
2023-02-03T04:04:25.486Z,10.93
2023-02-03T04:06:55.018Z,11.73
2023-02-03T04:09:22.971Z,9.00
2023-02-03T04:12:03.042Z,8.73
2023-02-03T04:14:32.255Z,8.57
2023-02-03T04:17:00.797Z,7.93
2023-02-03T04:19:30.253Z,11.13
2023-02-03T04:21:58.706Z,8.63
2023-02-03T04:24:26.751Z,7.67
2023-02-03T04:26:54.805Z,8.60
2023-02-03T04:29:22.824Z,10.37
2023-02-03T04:31:50.899Z,11.10
2023-02-03T04:34:18.921Z,8.23
2023-02-03T04:36:48.272Z,10.53
2023-02-03T04:39:16.220Z,9.03
2023-02-03T04:41:44.184Z,10.87
2023-02-03T04:44:12.161Z,10.13
2023-02-03T04:46:40.102Z,9.27
2023-02-03T04:49:11.454Z,9.57
2023-02-03T04:51:39.576Z,9.67
2023-02-03T04:54:09.148Z,10.10
2023-02-03T04:56:37.621Z,9.23
2023-02-03T04:59:05.638Z,9.53
2023-02-03T05:01:33.783Z,9.53
2023-02-03T05:04:01.925Z,7.33
2023-02-03T05:06:32.062Z,10.53
2023-02-03T05:09:00.274Z,10.57
2023-02-03T05:11:29.994Z,8.40
2023-02-03T05:13:58.044Z,8.83
2023-02-03T05:16:26.375Z,7.60
2023-02-03T05:18:54.441Z,9.57
2023-02-03T05:21:23.759Z,10.43
2023-02-03T05:23:51.779Z,8.47
2023-02-03T05:26:19.753Z,8.87
2023-02-03T05:28:49.598Z,10.90
2023-02-03T05:31:18.683Z,10.10
2023-02-03T05:33:46.857Z,8.93
2023-02-03T05:36:14.881Z,8.63
2023-02-03T05:38:43.021Z,9.20
2023-02-03T05:41:29.075Z,8.77
2023-02-03T05:43:58.434Z,7.93
2023-02-03T05:46:27.460Z,8.13
2023-02-03T05:48:55.431Z,9.80
2023-02-03T05:51:23.381Z,11.47
2023-02-03T05:53:51.655Z,11.30
2023-02-03T05:56:19.625Z,13.03
2023-02-03T05:58:47.625Z,13.03
2023-02-03T06:01:17.142Z,13.07
2023-02-03T06:03:46.338Z,16.37
2023-02-03T06:06:14.810Z,13.97
2023-02-03T06:08:43.135Z,17.37
2023-02-03T06:11:11.833Z,15.67
2023-02-03T06:13:40.938Z,17.87
2023-02-03T06:16:09.295Z,17.80
2023-02-03T06:18:38.625Z,19.23
2023-02-03T06:21:07.082Z,20.83
2023-02-03T06:23:35.136Z,19.37
2023-02-03T06:26:04.113Z,17.67
2023-02-03T06:28:33.460Z,17.87
2023-02-03T06:31:01.806Z,19.03
2023-02-03T06:33:30.032Z,18.43
2023-02-03T06:35:59.459Z,17.70
2023-02-03T06:38:27.525Z,17.77
2023-02-03T06:40:55.495Z,15.53
2023-02-03T06:43:23.473Z,15.13
2023-02-03T06:45:51.488Z,16.00
2023-02-03T06:48:19.488Z,16.87
2023-02-03T06:50:48.724Z,17.03
2023-02-03T06:53:18.666Z,18.43
2023-02-03T06:55:47.872Z,17.07
2023-02-03T06:58:16.003Z,18.00
2023-02-03T07:00:44.131Z,20.17
2023-02-03T07:03:12.106Z,18.90
2023-02-03T07:05:40.760Z,17.80
2023-02-03T07:08:08.856Z,22.03
2023-02-03T07:10:38.179Z,18.97
2023-02-03T07:13:06.937Z,19.30
2023-02-03T07:15:35.482Z,18.80
2023-02-03T07:18:03.764Z,19.80
2023-02-03T07:20:32.925Z,19.13
2023-02-03T07:23:00.914Z,18.97
2023-02-03T07:25:28.980Z,19.30
2023-02-03T07:27:58.425Z,18.30
2023-02-03T07:30:26.776Z,17.67
2023-02-03T07:32:55.388Z,16.80
2023-02-03T07:35:23.343Z,18.27
2023-02-03T07:37:51.353Z,18.17
2023-02-03T07:40:20.539Z,18.90
2023-02-03T07:42:50.315Z,18.47
2023-02-03T07:45:22.087Z,16.13
2023-02-03T07:47:53.089Z,16.67
2023-02-03T07:50:21.175Z,18.30
2023-02-03T07:52:51.731Z,17.47
2023-02-03T07:55:19.690Z,16.73
2023-02-03T07:57:47.729Z,19.07
2023-02-03T08:00:19.588Z,17.87
2023-02-03T08:02:48.062Z,19.40
2023-02-03T08:05:17.344Z,20.33
2023-02-03T08:07:46.424Z,19.40
2023-02-03T08:10:15.996Z,21.93
2023-02-03T08:12:45.358Z,18.67
2023-02-03T08:15:14.153Z,20.37
2023-02-03T08:17:44.519Z,18.90
2023-02-03T08:20:14.457Z,17.30
2023-02-03T08:22:42.392Z,15.00
2023-02-03T08:25:10.789Z,17.13
2023-02-03T08:27:38.885Z,17.10
2023-02-03T08:30:08.838Z,14.20
2023-02-03T08:32:37.052Z,16.73
2023-02-03T08:35:07.112Z,14.17
2023-02-03T08:37:35.128Z,18.00
2023-02-03T08:40:03.340Z,16.10
2023-02-03T08:42:34.258Z,16.57
2023-02-03T08:45:04.879Z,18.57
2023-02-03T08:47:36.822Z,16.00
2023-02-03T08:50:08.220Z,16.30
2023-02-03T08:52:36.403Z,15.50
2023-02-03T08:55:04.642Z,14.37
2023-02-03T08:57:34.749Z,18.03
2023-02-03T09:00:03.021Z,13.80
2023-02-03T09:02:31.282Z,15.60
2023-02-03T09:05:00.066Z,14.03
2023-02-03T09:07:30.051Z,14.53
2023-02-03T09:09:58.057Z,13.30
2023-02-03T09:12:26.041Z,12.30
2023-02-03T09:14:54.037Z,12.57
2023-02-03T09:17:22.063Z,13.67
2023-02-03T09:19:50.056Z,13.70
2023-02-03T09:22:18.048Z,14.27
2023-02-03T09:24:48.600Z,12.33
2023-02-03T09:27:16.690Z,13.13
2023-02-03T09:29:44.679Z,13.37
2023-02-03T09:32:15.480Z,15.10
2023-02-03T09:34:43.824Z,12.80
2023-02-03T09:37:11.804Z,16.17
2023-02-03T09:39:39.816Z,14.43
2023-02-03T09:42:34.848Z,12.13
2023-02-03T09:45:13.105Z,13.47
2023-02-03T09:47:43.626Z,13.50
2023-02-03T09:50:16.420Z,14.17
2023-02-03T09:52:45.276Z,13.17
2023-02-03T09:55:26.316Z,15.10
2023-02-03T09:58:02.230Z,14.23
2023-02-03T10:00:37.243Z,13.10
2023-02-03T10:03:14.042Z,11.00
2023-02-03T10:05:57.347Z,10.97
2023-02-03T10:08:38.003Z,13.40
2023-02-03T10:11:17.309Z,13.03
2023-02-03T10:13:54.476Z,11.67
2023-02-03T10:16:43.796Z,12.37
2023-02-03T10:19:15.742Z,13.83
2023-02-03T10:21:48.522Z,15.80
2023-02-03T10:24:20.162Z,14.20
2023-02-03T10:26:48.470Z,13.50
2023-02-03T10:29:21.779Z,11.60
2023-02-03T10:31:50.214Z,11.30
2023-02-03T10:34:19.800Z,10.63
2023-02-03T10:36:56.768Z,12.23
2023-02-03T10:39:40.578Z,11.80
2023-02-03T10:42:10.193Z,11.70
2023-02-03T10:44:42.619Z,10.17
2023-02-03T10:47:26.041Z,9.57
2023-02-03T10:49:55.575Z,8.33
2023-02-03T10:52:32.489Z,9.90
2023-02-03T10:55:01.184Z,10.50
2023-02-03T10:57:30.574Z,7.50
2023-02-03T11:00:09.743Z,7.57
2023-02-03T11:02:38.178Z,7.90
2023-02-03T11:05:24.924Z,7.40
2023-02-03T11:07:53.648Z,6.77
2023-02-03T11:10:29.791Z,7.83
2023-02-03T11:13:20.921Z,9.47
2023-02-03T11:15:59.566Z,7.77
2023-02-03T11:18:56.227Z,5.67
2023-02-03T11:21:26.137Z,6.50
2023-02-03T11:24:03.221Z,5.33
2023-02-03T11:26:36.035Z,5.77
2023-02-03T11:29:06.275Z,5.67
2023-02-03T11:31:37.408Z,5.40
2023-02-03T11:34:08.985Z,5.43
2023-02-03T11:36:37.521Z,6.20
2023-02-03T11:39:20.624Z,6.57
2023-02-03T11:41:49.465Z,5.93
2023-02-03T11:44:22.853Z,6.07
2023-02-03T11:46:56.392Z,6.53
2023-02-03T11:50:04.684Z,7.20
2023-02-03T11:52:48.776Z,5.60
2023-02-03T11:55:32.618Z,5.83
2023-02-03T11:58:24.258Z,9.73
2023-02-03T12:00:59.595Z,6.07
2023-02-03T12:03:54.643Z,9.03
2023-02-03T12:06:42.821Z,6.40
2023-02-03T12:09:23.205Z,5.57
2023-02-03T12:12:04.620Z,7.77
2023-02-03T12:14:47.046Z,7.77
2023-02-03T12:17:40.976Z,7.50
2023-02-03T12:20:30.353Z,7.10
2023-02-03T12:23:08.298Z,7.83
2023-02-03T12:25:49.051Z,9.07
2023-02-03T12:28:33.777Z,10.30
2023-02-03T12:31:13.305Z,8.93
2023-02-03T12:33:45.201Z,10.03
2023-02-03T12:36:22.142Z,9.13
2023-02-03T12:38:54.308Z,8.87
2023-02-03T12:41:27.342Z,7.93
2023-02-03T12:44:01.804Z,7.53
2023-02-03T12:46:33.287Z,11.10
2023-02-03T12:49:06.576Z,8.50
2023-02-03T12:51:40.412Z,8.40
2023-02-03T12:54:21.335Z,7.47
2023-02-03T12:56:54.950Z,6.93
2023-02-03T12:59:26.116Z,8.73
2023-02-03T13:01:58.971Z,9.30
2023-02-03T13:04:35.888Z,8.97
2023-02-03T13:07:12.915Z,8.77
2023-02-03T13:09:50.285Z,11.67
2023-02-03T13:12:30.325Z,10.03
2023-02-03T13:15:04.799Z,9.63
2023-02-03T13:17:42.228Z,8.97
2023-02-03T13:20:19.992Z,11.20
2023-02-03T13:22:49.733Z,9.23
2023-02-03T13:25:24.253Z,9.20
2023-02-03T13:28:02.823Z,11.63
2023-02-03T13:30:44.683Z,12.13
2023-02-03T13:33:52.196Z,11.17
2023-02-03T13:36:47.950Z,8.70
2023-02-03T13:39:42.922Z,8.43
2023-02-03T13:42:22.514Z,8.33
2023-02-03T13:45:01.363Z,9.63
2023-02-03T13:47:32.431Z,8.17
2023-02-03T13:50:04.023Z,8.70
2023-02-03T13:52:36.375Z,10.60
2023-02-03T13:55:07.042Z,11.77
2023-02-03T13:57:37.558Z,11.13
2023-02-03T14:00:27.980Z,10.53
2023-02-03T14:02:57.421Z,11.50
2023-02-03T14:05:43.845Z,13.00
2023-02-03T14:08:53.173Z,12.53
2023-02-03T14:11:42.933Z,14.20
2023-02-03T14:14:46.046Z,17.00
2023-02-03T14:18:05.970Z,17.47
2023-02-03T14:20:53.761Z,15.57
2023-02-03T14:23:28.469Z,16.47
2023-02-03T14:26:00.518Z,15.77
2023-02-03T14:28:39.693Z,19.63
2023-02-03T14:31:17.535Z,16.83
2023-02-03T14:34:09.988Z,18.57
2023-02-03T14:36:48.396Z,19.57
2023-02-03T14:39:58.224Z,21.37
2023-02-03T14:43:11.206Z,26.77
2023-02-03T14:46:06.162Z,23.47
2023-02-03T14:48:55.849Z,30.60
2023-02-03T14:51:36.324Z,33.17
2023-02-03T14:54:19.615Z,35.57
2023-02-03T14:57:11.287Z,32.47
2023-02-03T14:59:44.829Z,22.50
2023-02-03T15:02:19.064Z,22.47
2023-02-03T15:04:47.599Z,21.27
2023-02-03T15:07:39.236Z,20.67
2023-02-03T15:10:15.959Z,17.70
2023-02-03T15:12:49.594Z,16.07
2023-02-03T15:15:26.373Z,18.50
2023-02-03T15:17:58.103Z,15.90
2023-02-03T15:20:41.350Z,18.87
2023-02-03T15:23:21.465Z,17.03
2023-02-03T15:25:55.738Z,16.70
2023-02-03T15:28:25.703Z,20.57
2023-02-03T15:30:59.876Z,21.37
2023-02-03T15:33:32.867Z,22.60
2023-02-03T15:36:11.375Z,23.07
2023-02-03T15:38:43.088Z,20.37
2023-02-03T15:41:18.233Z,20.77
2023-02-03T15:43:48.041Z,21.50
2023-02-03T15:46:21.240Z,16.63
2023-02-03T15:48:54.863Z,13.67
2023-02-03T15:51:29.745Z,12.23
2023-02-03T15:54:02.280Z,12.70
2023-02-03T15:56:37.833Z,11.33
2023-02-03T15:59:06.245Z,10.67
2023-02-03T16:01:34.726Z,9.17
2023-02-03T16:04:14.699Z,7.63
2023-02-03T16:06:47.672Z,9.10
2023-02-03T16:09:30.817Z,9.27
2023-02-03T16:12:18.593Z,8.23
2023-02-03T16:14:47.022Z,7.00
2023-02-03T16:17:31.191Z,7.67
2023-02-03T16:20:25.696Z,7.30
2023-02-03T16:23:06.190Z,7.37
2023-02-03T16:25:36.221Z,8.00
2023-02-03T16:28:32.565Z,7.77
2023-02-03T16:31:20.881Z,9.07
2023-02-03T16:34:08.090Z,9.47
2023-02-03T16:36:58.653Z,9.93
2023-02-03T16:39:45.473Z,11.17
2023-02-03T16:42:35.550Z,8.87
2023-02-03T16:45:21.020Z,9.23
2023-02-03T16:48:06.343Z,11.60
2023-02-03T16:50:54.240Z,12.37
2023-02-03T16:53:25.380Z,12.43
2023-02-03T16:55:58.716Z,12.70
2023-02-03T16:58:26.758Z,12.97
2023-02-03T17:00:56.010Z,13.50
2023-02-03T17:03:25.672Z,14.40
2023-02-03T17:05:54.869Z,14.80
2023-02-03T17:08:26.867Z,14.97
2023-02-03T17:10:55.037Z,16.40
2023-02-03T17:13:24.425Z,16.83
2023-02-03T17:15:54.349Z,18.10
2023-02-03T17:18:22.797Z,14.00
2023-02-03T17:20:54.411Z,16.07
2023-02-03T17:23:23.839Z,17.87
2023-02-03T17:25:54.087Z,17.23
2023-02-03T17:28:22.134Z,18.10
2023-02-03T17:30:58.006Z,17.50
2023-02-03T17:33:26.615Z,21.20
2023-02-03T17:36:03.446Z,20.03
2023-02-03T17:38:36.778Z,19.60
2023-02-03T17:55:01.773Z,23.10
2023-02-03T17:57:29.941Z,23.10
2023-02-03T17:59:59.292Z,20.93
2023-02-03T18:02:27.401Z,19.80
2023-02-03T18:04:55.383Z,22.00
2023-02-03T18:07:23.347Z,19.07
2023-02-03T18:09:51.310Z,21.73
2023-02-03T18:12:20.650Z,19.57
2023-02-03T18:14:50.787Z,18.87
2023-02-03T18:17:18.751Z,20.53
2023-02-03T18:19:51.932Z,19.00
2023-02-03T18:22:23.828Z,19.03
2023-02-03T18:24:52.264Z,17.37
2023-02-03T18:27:21.639Z,20.90
2023-02-03T18:29:51.412Z,18.03
2023-02-03T18:32:19.920Z,22.37
2023-02-03T18:34:49.795Z,20.53
2023-02-03T18:37:17.808Z,19.70
2023-02-03T18:39:47.896Z,23.13
2023-02-03T18:42:16.155Z,20.17
2023-02-03T18:44:45.562Z,20.20
2023-02-03T18:47:13.556Z,19.83
2023-02-03T18:49:42.174Z,23.83
2023-02-03T18:52:10.155Z,22.20
2023-02-03T18:54:38.123Z,23.70
2023-02-03T18:57:06.212Z,23.80
2023-02-03T18:59:34.751Z,24.13
2023-02-03T19:02:04.111Z,25.37
2023-02-03T19:04:32.299Z,24.77
2023-02-03T19:07:00.362Z,26.00
2023-02-03T19:09:28.427Z,22.10
2023-02-03T19:11:58.660Z,26.83
2023-02-03T19:14:26.819Z,21.07
2023-02-03T19:16:54.980Z,23.50
2023-02-03T19:19:24.363Z,21.63
2023-02-03T19:21:52.720Z,26.50
2023-02-03T19:24:21.602Z,24.83
2023-02-03T19:26:49.665Z,27.50
2023-02-03T19:29:18.142Z,23.30
2023-02-03T19:31:48.740Z,27.03
2023-02-03T19:34:17.793Z,27.13
2023-02-03T19:36:47.861Z,24.27
2023-02-03T19:39:16.308Z,28.20
2023-02-03T19:41:44.565Z,27.03
2023-02-03T19:44:13.656Z,24.53
2023-02-03T19:46:42.207Z,26.80
2023-02-03T19:49:13.209Z,23.90
2023-02-03T19:51:41.339Z,28.70
2023-02-03T19:54:17.006Z,25.23
2023-02-03T19:56:45.634Z,26.90
2023-02-03T19:59:14.982Z,26.00
2023-02-03T20:01:43.402Z,24.37
2023-02-03T20:04:11.820Z,27.47
2023-02-03T20:06:40.025Z,24.03
2023-02-03T20:09:08.115Z,29.87
2023-02-03T20:11:37.599Z,26.53
2023-02-03T20:14:06.155Z,26.87
2023-02-03T20:16:35.443Z,27.43
2023-02-03T20:19:04.063Z,27.90
2023-02-03T20:21:32.377Z,25.30
2023-02-03T20:24:00.619Z,22.57
2023-02-03T20:26:28.626Z,24.07
2023-02-03T20:28:58.043Z,21.47
2023-02-03T20:31:26.284Z,19.63
2023-02-03T20:33:54.421Z,22.27
2023-02-03T20:36:22.409Z,17.87
2023-02-03T20:38:52.336Z,21.40
2023-02-03T20:41:20.737Z,20.13
2023-02-03T20:43:49.085Z,19.67
2023-02-03T20:46:19.987Z,19.07
2023-02-03T20:48:48.441Z,18.00
2023-02-03T20:51:18.280Z,14.93
2023-02-03T20:53:46.338Z,14.47
2023-02-03T20:56:21.381Z,14.17
2023-02-03T20:58:49.890Z,14.13
2023-02-03T21:01:20.770Z,13.40
2023-02-03T21:04:06.536Z,12.67
2023-02-03T21:06:35.804Z,13.60
2023-02-03T21:09:15.033Z,10.77
2023-02-03T21:11:43.959Z,14.43
2023-02-03T21:14:20.983Z,16.57
2023-02-03T21:16:51.742Z,14.10
2023-02-03T21:19:30.312Z,13.53
2023-02-03T21:21:58.969Z,18.30
2023-02-03T21:24:29.250Z,14.10
2023-02-03T21:26:58.464Z,12.77
2023-02-03T21:29:30.531Z,13.93
2023-02-03T21:32:00.734Z,14.13
2023-02-03T21:34:33.722Z,13.23
2023-02-03T21:37:14.113Z,12.30
2023-02-03T21:39:43.513Z,14.20
2023-02-03T21:45:41.166Z,14.17
2023-02-03T21:48:29.216Z,17.33
2023-02-03T21:50:58.398Z,22.90
2023-02-03T21:53:31.289Z,27.40
2023-02-03T21:56:16.542Z,19.10
2023-02-03T21:58:47.268Z,26.87
2023-02-03T22:01:19.842Z,22.10
2023-02-03T22:03:50.143Z,23.93
2023-02-03T22:06:22.731Z,22.37
2023-02-03T22:08:52.642Z,21.23
2023-02-03T22:11:22.494Z,21.87
2023-02-03T22:13:56.747Z,20.17
2023-02-03T22:16:26.539Z,22.73
2023-02-03T22:18:54.500Z,25.77
2023-02-03T22:21:22.774Z,20.97
2023-02-03T22:23:50.934Z,22.20
2023-02-03T22:26:19.943Z,21.27
2023-02-03T22:28:48.122Z,22.30
2023-02-03T22:31:16.662Z,20.37
2023-02-03T22:33:46.339Z,22.13
2023-02-03T22:36:15.825Z,17.83
2023-02-03T22:38:44.402Z,21.10
2023-02-03T22:41:13.131Z,24.33
2023-02-03T22:43:41.584Z,23.50
2023-02-03T22:46:11.757Z,22.73
2023-02-03T22:48:40.007Z,23.47
2023-02-03T22:51:09.581Z,19.77
2023-02-03T22:53:39.391Z,19.40
2023-02-03T22:56:07.764Z,22.83
2023-02-03T22:58:35.734Z,22.20
2023-02-03T23:01:03.768Z,20.37
2023-02-03T23:03:32.741Z,20.90
2023-02-03T23:06:00.940Z,21.93
2023-02-03T23:08:30.320Z,16.43
2023-02-03T23:10:58.688Z,17.17
2023-02-03T23:13:26.864Z,16.93
2023-02-03T23:15:54.893Z,15.30
2023-02-03T23:18:22.924Z,17.33
2023-02-03T23:20:53.630Z,15.10
2023-02-03T23:23:21.628Z,15.90
2023-02-03T23:25:50.950Z,14.67
2023-02-03T23:28:18.953Z,16.60
2023-02-03T23:30:47.097Z,13.63
2023-02-03T23:33:15.362Z,17.97
2023-02-03T23:35:49.295Z,13.57
2023-02-03T23:38:19.142Z,17.00
2023-02-03T23:40:49.835Z,13.40
2023-02-03T23:43:19.157Z,14.07
2023-02-03T23:45:47.508Z,14.20
2023-02-03T23:48:17.429Z,14.40
2023-02-03T23:50:45.406Z,14.20
2023-02-03T23:53:15.982Z,11.83
2023-02-03T23:55:43.954Z,13.87
2023-02-03T23:58:11.933Z,14.73
